createdAt,value
2024-02-11T00:03:50.840Z,9.75
2024-02-11T00:08:12.376Z,9.47
2024-02-11T00:12:35.053Z,10.13
2024-02-11T00:16:54.124Z,9.70
2024-02-11T00:21:17.188Z,10.90
2024-02-11T00:25:38.422Z,10.68
2024-02-11T00:30:00.012Z,9.95
2024-02-11T00:34:17.901Z,9.20
2024-02-11T00:38:40.823Z,9.13
2024-02-11T00:43:00.929Z,9.60
2024-02-11T00:47:21.091Z,9.35
2024-02-11T00:51:38.885Z,8.90
2024-02-11T00:55:58.760Z,8.85
2024-02-11T01:00:19.839Z,9.98
2024-02-11T01:04:42.169Z,9.77
2024-02-11T01:09:01.051Z,9.77
2024-02-11T01:13:19.833Z,9.32
2024-02-11T01:17:40.474Z,9.40
2024-02-11T01:21:57.490Z,7.53
2024-02-11T01:26:15.872Z,7.38
2024-02-11T01:30:35.589Z,9.45
2024-02-11T01:34:54.922Z,10.20
2024-02-11T01:39:13.074Z,9.55
2024-02-11T01:43:31.368Z,10.25
2024-02-11T01:47:50.510Z,9.30
2024-02-11T01:52:11.630Z,10.10
2024-02-11T01:56:31.886Z,9.40
2024-02-11T02:00:50.952Z,8.52
2024-02-11T02:05:10.510Z,8.87
2024-02-11T02:09:31.576Z,8.55
2024-02-11T02:13:51.401Z,9.25
2024-02-11T02:18:11.589Z,8.10
2024-02-11T02:22:31.764Z,8.65
2024-02-11T02:26:51.285Z,8.15
2024-02-11T02:31:09.242Z,8.70
2024-02-11T02:35:27.501Z,9.05
2024-02-11T02:39:47.073Z,8.88
2024-02-11T02:44:06.715Z,10.18
2024-02-11T02:48:25.077Z,10.13
2024-02-11T02:52:42.520Z,9.20
2024-02-11T02:57:02.037Z,11.02
2024-02-11T03:01:24.165Z,10.80
2024-02-11T03:05:45.540Z,12.07
2024-02-11T03:10:07.635Z,13.77
2024-02-11T03:14:26.807Z,14.23
2024-02-11T03:18:49.845Z,16.20
2024-02-11T03:23:07.739Z,15.15
2024-02-11T03:27:25.862Z,16.85
2024-02-11T03:31:45.539Z,18.33
2024-02-11T03:36:05.280Z,18.38
2024-02-11T03:40:22.828Z,18.80
2024-02-11T03:44:40.699Z,18.97
2024-02-11T03:49:03.792Z,20.77
2024-02-11T03:53:23.221Z,21.15
2024-02-11T03:57:44.721Z,21.20
2024-02-11T04:02:05.110Z,19.67
2024-02-11T04:06:24.807Z,21.27
2024-02-11T04:10:44.472Z,16.65
2024-02-11T04:15:03.538Z,21.47
2024-02-11T04:19:22.203Z,21.98
2024-02-11T04:23:45.048Z,22.13
2024-02-11T04:28:03.297Z,22.03
2024-02-11T04:32:23.880Z,23.08
2024-02-11T04:36:42.554Z,23.20
2024-02-11T04:41:02.395Z,22.47
2024-02-11T04:45:22.205Z,21.80
2024-02-11T04:49:40.148Z,21.85
2024-02-11T04:53:58.894Z,20.85
2024-02-11T04:58:21.713Z,21.70
2024-02-11T05:02:41.377Z,22.90
2024-02-11T05:07:01.020Z,20.55
2024-02-11T05:11:18.847Z,22.03
2024-02-11T05:15:39.926Z,20.63
2024-02-11T05:19:57.981Z,20.73
2024-02-11T05:24:16.060Z,20.27
2024-02-11T05:28:36.684Z,17.48
2024-02-11T05:32:59.066Z,19.30
2024-02-11T05:37:17.424Z,19.08
2024-02-11T05:41:34.365Z,18.43
2024-02-11T05:45:52.385Z,16.27
2024-02-11T05:50:14.125Z,18.23
2024-02-11T05:54:31.653Z,18.40
2024-02-11T05:58:50.445Z,18.10
2024-02-11T06:03:07.662Z,18.35
2024-02-11T06:07:27.192Z,18.47
2024-02-11T06:11:46.911Z,17.75
2024-02-11T06:16:07.781Z,17.55
2024-02-11T06:20:26.316Z,18.23
2024-02-11T06:24:45.656Z,15.37
2024-02-11T06:29:06.060Z,14.48
2024-02-11T06:33:23.426Z,17.95
2024-02-11T06:37:42.333Z,17.17
2024-02-11T06:42:04.157Z,17.20
2024-02-11T06:46:26.085Z,16.83
2024-02-11T06:50:49.557Z,17.57
2024-02-11T06:55:12.277Z,16.92
2024-02-11T06:59:34.044Z,16.90
2024-02-11T07:03:54.820Z,17.13
2024-02-11T07:08:29.516Z,19.07
2024-02-11T07:12:52.100Z,18.88
2024-02-11T07:17:16.166Z,17.80
2024-02-11T07:21:37.559Z,17.63
2024-02-11T07:25:55.467Z,17.13
2024-02-11T07:30:16.858Z,14.07
2024-02-11T07:34:41.242Z,17.43
2024-02-11T07:38:58.740Z,18.00
2024-02-11T07:43:18.631Z,17.70
2024-02-11T07:47:39.914Z,17.35
2024-02-11T07:52:08.520Z,17.63
2024-02-11T07:56:31.184Z,17.67
2024-02-11T08:00:55.201Z,18.35
2024-02-11T08:05:20.164Z,18.40
2024-02-11T08:09:42.934Z,18.95
2024-02-11T08:14:03.183Z,18.67
2024-02-11T08:18:21.126Z,18.70
2024-02-11T08:22:39.254Z,18.23
2024-02-11T08:26:58.990Z,18.77
2024-02-11T08:31:19.570Z,18.88
2024-02-11T08:35:39.441Z,17.50
2024-02-11T08:39:57.604Z,18.70
2024-02-11T08:44:17.315Z,18.27
2024-02-11T08:48:36.705Z,16.90
2024-02-11T08:52:54.976Z,18.60
2024-02-11T08:57:14.685Z,17.33
2024-02-11T09:01:35.388Z,18.17
2024-02-11T09:05:57.169Z,17.92
2024-02-11T09:10:16.690Z,18.70
2024-02-11T09:14:38.475Z,19.42
2024-02-11T09:19:00.099Z,15.83
2024-02-11T09:23:19.610Z,17.40
2024-02-11T09:27:37.970Z,15.35
2024-02-11T09:31:56.753Z,16.50
2024-02-11T09:36:15.705Z,17.60
2024-02-11T09:40:37.210Z,16.45
2024-02-11T09:45:00.454Z,17.73
2024-02-11T09:49:22.844Z,17.17
2024-02-11T09:53:43.607Z,17.20
2024-02-11T09:58:02.614Z,18.38
2024-02-11T10:02:21.187Z,16.13
2024-02-11T10:06:40.916Z,16.25
2024-02-11T10:11:01.905Z,15.35
2024-02-11T10:15:23.695Z,16.83
2024-02-11T10:19:42.135Z,16.23
2024-02-11T10:24:00.924Z,16.20
2024-02-11T10:28:19.912Z,16.23
2024-02-11T10:32:39.863Z,15.25
2024-02-11T10:36:58.123Z,14.77
2024-02-11T10:41:16.107Z,14.73
2024-02-11T10:45:36.755Z,14.37
2024-02-11T10:49:54.611Z,14.80
2024-02-11T10:54:15.869Z,14.57
2024-02-11T10:58:39.366Z,15.50
2024-02-11T11:03:04.197Z,14.90
2024-02-11T11:07:28.833Z,15.27
2024-02-11T11:11:50.535Z,15.47
2024-02-11T11:16:15.253Z,14.90
2024-02-11T11:20:38.233Z,16.63
2024-02-11T11:24:56.466Z,16.92
2024-02-11T11:29:25.254Z,15.53
2024-02-11T11:33:45.310Z,16.52
2024-02-11T11:38:08.460Z,17.02
2024-02-11T11:42:27.188Z,16.63
2024-02-11T11:46:45.000Z,15.60
2024-02-11T11:51:03.985Z,16.50
2024-02-11T11:55:25.684Z,16.50
2024-02-11T11:59:47.403Z,17.38
2024-02-11T12:04:10.250Z,18.15
2024-02-11T12:08:37.262Z,19.17
2024-02-11T12:13:06.410Z,17.53
2024-02-11T12:17:28.828Z,17.75
2024-02-11T12:21:49.842Z,18.35
2024-02-11T12:26:10.613Z,18.13
2024-02-11T12:30:31.729Z,17.70
2024-02-11T12:34:49.352Z,17.92
2024-02-11T12:39:09.719Z,18.13
2024-02-11T12:43:29.332Z,17.98
2024-02-11T12:47:48.264Z,18.95
2024-02-11T12:52:12.605Z,17.98
2024-02-11T12:56:31.796Z,18.93
2024-02-11T13:00:49.865Z,18.77
2024-02-11T13:05:12.415Z,18.63
2024-02-11T13:09:33.678Z,18.57
2024-02-11T13:13:58.943Z,17.02
2024-02-11T13:18:20.625Z,16.70
2024-02-11T13:22:46.409Z,17.27
2024-02-11T13:27:06.276Z,16.73
2024-02-11T13:31:27.361Z,17.27
2024-02-11T13:35:49.009Z,17.75
2024-02-11T13:40:13.490Z,16.73
2024-02-11T13:44:36.666Z,17.33
2024-02-11T13:49:08.140Z,16.15
2024-02-11T13:53:28.426Z,17.67
2024-02-11T13:57:49.541Z,18.08
2024-02-11T14:02:09.574Z,17.08
2024-02-11T14:07:00.963Z,18.17
2024-02-11T14:11:21.182Z,18.88
2024-02-11T14:15:42.610Z,17.45
2024-02-11T14:20:04.094Z,17.63
2024-02-11T14:24:57.879Z,17.50
2024-02-11T14:43:56.110Z,16.17
2024-02-11T14:48:15.129Z,17.88
2024-02-11T14:52:34.998Z,17.17
2024-02-11T14:56:59.949Z,17.83
2024-02-11T15:01:22.055Z,18.00
2024-02-11T15:05:39.966Z,17.85
2024-02-11T15:09:57.751Z,18.93
2024-02-11T15:14:17.490Z,17.90
2024-02-11T15:18:42.363Z,18.50
2024-02-11T15:23:00.685Z,18.30
2024-02-11T15:27:20.447Z,17.13
2024-02-11T15:31:42.247Z,19.13
2024-02-11T15:36:03.011Z,18.57
2024-02-11T15:40:22.236Z,19.42
2024-02-11T15:44:40.509Z,20.10
2024-02-11T15:48:58.496Z,20.10
2024-02-11T15:53:17.648Z,19.23
2024-02-11T15:57:35.412Z,20.33
2024-02-11T16:01:55.005Z,20.85
2024-02-11T16:06:13.650Z,21.03
2024-02-11T16:10:34.322Z,19.45
2024-02-11T16:14:53.729Z,19.75
2024-02-11T16:19:10.965Z,19.47
2024-02-11T16:23:29.347Z,18.70
2024-02-11T16:27:51.214Z,19.63
2024-02-11T16:32:10.781Z,18.00
2024-02-11T16:36:30.985Z,19.70
2024-02-11T16:40:50.672Z,18.88
2024-02-11T16:45:13.933Z,18.92
2024-02-11T16:49:34.856Z,19.17
2024-02-11T16:53:54.009Z,19.25
2024-02-11T16:58:11.863Z,18.98
2024-02-11T17:02:34.210Z,18.00
2024-02-11T17:06:53.429Z,19.52
2024-02-11T17:16:10.009Z,19.95
2024-02-11T17:20:32.906Z,19.63
2024-02-11T17:24:52.820Z,16.90
2024-02-11T17:29:16.300Z,6.43
2024-02-11T17:33:54.202Z,3.83
2024-02-11T17:38:12.684Z,2.88
2024-02-11T17:42:33.985Z,3.65
2024-02-11T17:46:53.386Z,3.50
2024-02-11T17:51:17.215Z,3.10
2024-02-11T17:55:39.681Z,2.90
2024-02-11T17:59:57.514Z,2.58
2024-02-11T18:04:16.514Z,2.63
2024-02-11T18:08:36.978Z,3.92
2024-02-11T18:13:00.183Z,3.40
2024-02-11T18:17:18.186Z,3.07
2024-02-11T18:21:37.511Z,2.58
2024-02-11T18:26:07.288Z,2.97
2024-02-11T18:30:29.493Z,2.73
2024-02-11T18:34:49.605Z,3.63
2024-02-11T18:39:07.387Z,2.67
2024-02-11T18:43:28.357Z,2.83
2024-02-11T18:47:48.474Z,2.33
2024-02-11T18:52:09.146Z,2.58
2024-02-11T18:56:28.630Z,2.30
2024-02-11T19:00:46.202Z,2.30
2024-02-11T19:05:08.639Z,3.30
2024-02-11T19:09:25.765Z,1.98
2024-02-11T19:13:46.839Z,2.80
2024-02-11T19:18:05.037Z,3.85
2024-02-11T19:22:28.547Z,3.22
2024-02-11T19:26:47.679Z,3.53
2024-02-11T19:31:05.217Z,3.70
2024-02-11T19:35:36.053Z,4.90
2024-02-11T19:40:05.108Z,3.75
2024-02-11T19:44:26.847Z,3.70
2024-02-11T19:48:46.113Z,4.93
2024-02-11T19:53:14.606Z,4.15
2024-02-11T19:57:42.709Z,3.73
2024-02-11T20:02:04.751Z,4.63
2024-02-11T20:06:22.599Z,4.22
2024-02-11T20:10:41.806Z,5.13
2024-02-11T20:15:03.656Z,4.20
2024-02-11T20:19:27.429Z,3.67
2024-02-11T20:23:47.286Z,5.10
2024-02-11T20:28:06.411Z,3.73
2024-02-11T20:32:29.312Z,4.70
2024-02-11T20:36:49.865Z,4.68
2024-02-11T20:41:09.091Z,4.63
2024-02-11T20:45:30.854Z,5.38
2024-02-11T20:49:51.824Z,5.53
2024-02-11T20:54:10.912Z,5.67
2024-02-11T20:58:32.342Z,6.82
2024-02-11T21:02:52.164Z,7.80
2024-02-11T21:07:13.189Z,8.25
2024-02-11T21:11:32.685Z,9.90
2024-02-11T21:15:52.029Z,8.75
2024-02-11T21:20:14.671Z,7.25
2024-02-11T21:24:36.888Z,6.50
2024-02-11T21:28:57.947Z,6.50
2024-02-11T21:33:15.778Z,5.65
2024-02-11T21:37:40.284Z,6.20
2024-02-11T21:42:00.487Z,5.70
2024-02-11T21:46:19.480Z,5.70
2024-02-11T21:50:39.331Z,6.30
2024-02-11T21:54:58.622Z,6.87
2024-02-11T21:59:17.130Z,6.32
2024-02-11T22:03:37.866Z,6.65
2024-02-11T22:07:56.406Z,6.53
2024-02-11T22:12:16.241Z,6.85
2024-02-11T22:16:42.130Z,6.25
2024-02-11T22:21:02.428Z,6.37
2024-02-11T22:25:23.376Z,5.95
2024-02-11T22:29:44.119Z,5.28
2024-02-11T22:34:03.181Z,6.05
2024-02-11T22:38:22.720Z,5.47
2024-02-11T22:42:41.871Z,6.32
2024-02-11T22:46:58.820Z,4.80
2024-02-11T22:51:18.741Z,5.27
2024-02-11T22:55:37.813Z,4.68
2024-02-11T22:59:57.002Z,5.65
2024-02-11T23:04:17.117Z,4.90
2024-02-11T23:08:38.884Z,5.00
2024-02-11T23:12:56.686Z,4.60
2024-02-11T23:17:14.690Z,5.35
2024-02-11T23:21:36.132Z,4.13
2024-02-11T23:25:57.543Z,4.60
2024-02-11T23:30:16.276Z,4.45
2024-02-11T23:34:36.844Z,4.77
2024-02-11T23:38:53.959Z,4.53
2024-02-11T23:43:14.406Z,3.75
2024-02-11T23:47:33.719Z,4.40
2024-02-11T23:51:51.386Z,4.70
2024-02-11T23:56:10.450Z,4.90
